createdAt,value
2018-04-26T00:01:18.947Z,100628
2018-04-26T00:04:29.335Z,100636
2018-04-26T00:07:39.022Z,100632
2018-04-26T00:10:48.857Z,100633
2018-04-26T00:13:58.326Z,100633
2018-04-26T00:17:08.174Z,100624
2018-04-26T00:20:18.537Z,100621
2018-04-26T00:23:28.752Z,100619
2018-04-26T00:26:38.708Z,100625
2018-04-26T00:29:48.614Z,100627
2018-04-26T00:32:58.827Z,100632
2018-04-26T00:36:09.695Z,100620
2018-04-26T00:39:19.551Z,100623
2018-04-26T00:42:29.046Z,100622
2018-04-26T00:45:39.059Z,100617
2018-04-26T00:48:48.955Z,100619
2018-04-26T00:52:02.225Z,100623
2018-04-26T00:55:12.139Z,100620
2018-04-26T00:58:21.952Z,100603
2018-04-26T01:01:31.918Z,100617
2018-04-26T01:04:41.512Z,100613
2018-04-26T01:07:51.056Z,100621
2018-04-26T01:11:00.500Z,100619
2018-04-26T01:14:15.010Z,100617
2018-04-26T01:17:25.128Z,100614
2018-04-26T01:20:37.303Z,100619
2018-04-26T01:23:47.151Z,100618
2018-04-26T01:26:57.412Z,100607
2018-04-26T01:30:06.901Z,100622
2018-04-26T01:33:16.536Z,100626
2018-04-26T01:36:43.970Z,100623
2018-04-26T01:39:53.600Z,100628
2018-04-26T01:43:02.982Z,100634
2018-04-26T01:46:12.557Z,100640
2018-04-26T01:49:22.462Z,100638
2018-04-26T01:52:32.412Z,100638
2018-04-26T01:55:42.204Z,100644
2018-04-26T01:58:52.099Z,100642
2018-04-26T02:02:02.344Z,100641
2018-04-26T02:05:12.295Z,100633
2018-04-26T02:08:21.813Z,100630
2018-04-26T02:11:31.172Z,100630
2018-04-26T02:14:41.478Z,100625
2018-04-26T02:17:51.792Z,100630
2018-04-26T02:21:01.072Z,100624
2018-04-26T02:24:10.912Z,100629
2018-04-26T02:27:20.839Z,100632
2018-04-26T02:30:30.923Z,100633
2018-04-26T02:33:41.217Z,100627
2018-04-26T02:36:50.929Z,100635
2018-04-26T02:40:00.927Z,100635
2018-04-26T02:43:10.363Z,100636
2018-04-26T02:46:20.604Z,100631
2018-04-26T02:49:31.103Z,100632
2018-04-26T02:52:42.260Z,100629
2018-04-26T02:55:52.212Z,100632
2018-04-26T02:59:02.529Z,100628
2018-04-26T03:02:12.060Z,100624
2018-04-26T03:05:21.533Z,100609
2018-04-26T03:08:31.948Z,100620
2018-04-26T03:11:42.397Z,100624
2018-04-26T03:14:51.852Z,100615
2018-04-26T03:18:02.068Z,100638
2018-04-26T03:21:11.604Z,100635
2018-04-26T03:24:21.069Z,100633
2018-04-26T03:27:30.492Z,100638
2018-04-26T03:30:42.189Z,100639
2018-04-26T03:33:51.615Z,100638
2018-04-26T03:37:01.870Z,100642
2018-04-26T03:40:11.500Z,100642
2018-04-26T03:43:21.518Z,100649
2018-04-26T03:46:31.352Z,100650
2018-04-26T03:49:41.096Z,100643
2018-04-26T03:52:50.637Z,100641
2018-04-26T03:56:01.908Z,100641
2018-04-26T03:59:11.795Z,100645
2018-04-26T04:02:40.027Z,100657
2018-04-26T04:09:28.678Z,100683
2018-04-26T04:12:39.403Z,100693
2018-04-26T04:15:49.840Z,100683
2018-04-26T04:19:00.653Z,100673
2018-04-26T04:22:10.537Z,100678
2018-04-26T04:25:20.379Z,100666
2018-04-26T04:28:30.814Z,100674
2018-04-26T04:31:45.049Z,100672
2018-04-26T04:34:55.523Z,100665
2018-04-26T04:38:05.103Z,100671
2018-04-26T04:41:15.433Z,100674
2018-04-26T04:44:24.944Z,100678
2018-04-26T04:47:38.845Z,100667
2018-04-26T04:50:48.344Z,100668
2018-04-26T04:53:58.108Z,100670
2018-04-26T04:57:07.570Z,100674
2018-04-26T05:00:17.155Z,100663
2018-04-26T05:03:27.225Z,100675
2018-04-26T05:06:36.699Z,100686
2018-04-26T05:09:47.459Z,100686
2018-04-26T05:12:56.863Z,100701
2018-04-26T05:16:06.553Z,100695
2018-04-26T05:19:16.459Z,100712
2018-04-26T05:22:26.579Z,100717
2018-04-26T05:25:36.053Z,100722
2018-04-26T05:28:47.401Z,100713
2018-04-26T05:31:57.619Z,100730
2018-04-26T05:35:07.427Z,100735
2018-04-26T05:38:17.228Z,100722
2018-04-26T05:41:27.120Z,100734
2018-04-26T05:44:37.330Z,100737
2018-04-26T05:47:49.457Z,100735
2018-04-26T05:50:59.788Z,100739
2018-04-26T05:54:09.132Z,100739
2018-04-26T05:57:19.181Z,100747
2018-04-26T06:00:29.428Z,100747
2018-04-26T06:03:39.721Z,100750
2018-04-26T06:06:51.076Z,100755
2018-04-26T06:10:00.841Z,100754
2018-04-26T06:13:11.044Z,100759
2018-04-26T06:16:21.355Z,100756
2018-04-26T06:19:30.808Z,100765
2018-04-26T06:22:40.732Z,100751
2018-04-26T06:25:51.172Z,100770
2018-04-26T06:29:01.354Z,100775
2018-04-26T06:32:11.047Z,100779
2018-04-26T06:35:21.568Z,100774
2018-04-26T06:38:30.845Z,100784
2018-04-26T06:41:40.995Z,100790
2018-04-26T06:44:52.088Z,100792
2018-04-26T06:48:02.151Z,100795
2018-04-26T06:51:11.955Z,100803
2018-04-26T06:54:21.791Z,100805
2018-04-26T06:57:31.178Z,100801
2018-04-26T07:00:40.484Z,100821
2018-04-26T07:03:51.604Z,100817
2018-04-26T07:07:01.013Z,100810
2018-04-26T07:10:10.484Z,100815
2018-04-26T07:13:20.696Z,100817
2018-04-26T07:16:30.967Z,100828
2018-04-26T07:19:41.241Z,100804
2018-04-26T07:22:53.985Z,100819
2018-04-26T07:26:04.270Z,100814
2018-04-26T07:29:14.480Z,100833
2018-04-26T07:32:24.597Z,100835
2018-04-26T07:35:34.794Z,100845
2018-04-26T07:38:44.853Z,100851
2018-04-26T07:41:55.301Z,100845
2018-04-26T07:45:04.748Z,100851
2018-04-26T07:48:14.949Z,100847
2018-04-26T07:51:24.248Z,100856
2018-04-26T07:54:33.615Z,100857
2018-04-26T07:57:43.512Z,100854
2018-04-26T08:00:53.241Z,100856
2018-04-26T08:04:03.435Z,100841
2018-04-26T08:07:13.799Z,100862
2018-04-26T08:10:24.308Z,100869
2018-04-26T08:13:34.373Z,100866
2018-04-26T08:16:44.087Z,100875
2018-04-26T08:19:54.007Z,100881
2018-04-26T08:23:03.504Z,100878
2018-04-26T08:26:12.877Z,100874
2018-04-26T08:29:22.342Z,100887
2018-04-26T08:32:31.737Z,100862
2018-04-26T08:35:41.936Z,100888
2018-04-26T08:38:51.305Z,100876
2018-04-26T08:42:01.337Z,100900
2018-04-26T08:45:10.674Z,100883
2018-04-26T08:48:20.253Z,100896
2018-04-26T08:51:29.516Z,100897
2018-04-26T08:54:40.064Z,100892
2018-04-26T08:57:49.456Z,100882
2018-04-26T09:01:03.793Z,100885
2018-04-26T09:04:13.533Z,100888
2018-04-26T09:07:22.852Z,100889
2018-04-26T09:10:32.804Z,100886
2018-04-26T09:13:42.684Z,100889
2018-04-26T09:16:52.897Z,100876
2018-04-26T09:20:02.232Z,100891
2018-04-26T09:23:11.577Z,100889
2018-04-26T09:26:21.352Z,100901
2018-04-26T09:29:31.144Z,100922
2018-04-26T09:32:41.232Z,100917
2018-04-26T09:35:51.349Z,100920
2018-04-26T09:39:01.029Z,100921
2018-04-26T09:42:10.365Z,100933
2018-04-26T09:45:19.576Z,100928
2018-04-26T09:48:29.798Z,100914
2018-04-26T09:51:40.172Z,100909
2018-04-26T09:54:49.957Z,100911
2018-04-26T09:58:00.018Z,100910
2018-04-26T10:01:10.219Z,100915
2018-04-26T10:04:22.433Z,100899
2018-04-26T10:07:31.735Z,100917
2018-04-26T10:10:41.063Z,100903
2018-04-26T10:13:50.925Z,100883
2018-04-26T10:17:01.261Z,100911
2018-04-26T10:20:10.513Z,100915
2018-04-26T10:23:20.334Z,100914
2018-04-26T10:26:29.631Z,100920
2018-04-26T10:29:39.860Z,100915
2018-04-26T10:32:49.244Z,100922
2018-04-26T10:35:59.018Z,100911
2018-04-26T10:39:13.174Z,100927
2018-04-26T10:42:22.600Z,100918
2018-04-26T10:45:31.986Z,100917
2018-04-26T10:48:42.773Z,100910
2018-04-26T10:51:52.857Z,100912
2018-04-26T10:55:03.012Z,100903
2018-04-26T10:58:12.324Z,100933
2018-04-26T11:01:23.533Z,100925
2018-04-26T11:04:33.769Z,100919
2018-04-26T11:07:42.988Z,100916
2018-04-26T11:10:52.880Z,100892
2018-04-26T11:14:03.050Z,100932
2018-04-26T11:17:12.800Z,100939
2018-04-26T11:20:22.653Z,100993
2018-04-26T11:23:32.100Z,100992
2018-04-26T11:26:41.568Z,100983
2018-04-26T11:29:51.653Z,100971
2018-04-26T11:33:01.189Z,100963
2018-04-26T11:36:11.458Z,100961
2018-04-26T11:39:21.452Z,100949
2018-04-26T11:42:30.880Z,100953
2018-04-26T11:45:40.199Z,100937
2018-04-26T11:48:49.635Z,100942
2018-04-26T11:51:59.525Z,100930
2018-04-26T11:55:08.939Z,100942
2018-04-26T11:58:19.192Z,100958
2018-04-26T12:01:28.933Z,100960
2018-04-26T12:04:38.223Z,100970
2018-04-26T12:07:52.220Z,100977
2018-04-26T12:11:01.553Z,100989
2018-04-26T12:14:11.053Z,100995
2018-04-26T12:17:20.450Z,100996
2018-04-26T12:20:30.249Z,100986
2018-04-26T12:23:39.686Z,100991
2018-04-26T12:26:49.820Z,100987
2018-04-26T12:29:59.193Z,100988
2018-04-26T12:33:09.354Z,100984
2018-04-26T12:36:19.141Z,100972
2018-04-26T12:39:29.241Z,100969
2018-04-26T12:42:38.951Z,100961
2018-04-26T12:45:48.284Z,100971
2018-04-26T12:48:58.043Z,100973
2018-04-26T12:52:08.137Z,100977
2018-04-26T12:55:17.484Z,100979
2018-04-26T12:58:26.874Z,100975
2018-04-26T13:01:37.396Z,100972
2018-04-26T13:04:46.783Z,100955
2018-04-26T13:07:56.242Z,100952
2018-04-26T13:11:06.492Z,100967
2018-04-26T13:14:15.877Z,100962
2018-04-26T13:17:25.195Z,100965
2018-04-26T13:20:34.483Z,100962
2018-04-26T13:23:43.827Z,100964
2018-04-26T13:26:54.021Z,100949
2018-04-26T13:30:03.804Z,100969
2018-04-26T13:33:13.172Z,100969
2018-04-26T13:36:22.486Z,100939
2018-04-26T13:39:32.475Z,100947
2018-04-26T13:42:42.553Z,100948
2018-04-26T13:45:51.887Z,100962
2018-04-26T13:49:01.785Z,100954
2018-04-26T13:52:11.147Z,100962
2018-04-26T13:55:21.227Z,100948
2018-04-26T13:58:30.921Z,100965
2018-04-26T14:01:40.379Z,100991
2018-04-26T14:04:50.286Z,100987
2018-04-26T14:08:00.137Z,101000
2018-04-26T14:11:09.851Z,100989
2018-04-26T14:14:19.121Z,100993
2018-04-26T14:17:28.586Z,100981
2018-04-26T14:20:37.860Z,100964
2018-04-26T14:23:47.184Z,100945
2018-04-26T14:26:57.243Z,100946
2018-04-26T14:30:06.753Z,100936
2018-04-26T14:33:16.086Z,100930
2018-04-26T14:36:25.382Z,100933
2018-04-26T14:39:35.670Z,100926
2018-04-26T14:42:45.872Z,100962
2018-04-26T14:45:56.033Z,100933
2018-04-26T14:49:05.415Z,100914
2018-04-26T14:52:15.539Z,100933
2018-04-26T14:55:25.326Z,100926
2018-04-26T14:58:34.609Z,100914
2018-04-26T15:01:44.370Z,100928
2018-04-26T15:04:54.005Z,100926
2018-04-26T15:08:03.318Z,100927
2018-04-26T15:11:14.267Z,100907
2018-04-26T15:14:24.314Z,100938
2018-04-26T15:17:33.629Z,100945
2018-04-26T15:20:43.059Z,100949
2018-04-26T15:23:52.464Z,100956
2018-04-26T15:27:02.335Z,100948
2018-04-26T15:30:11.831Z,100931
2018-04-26T15:33:21.505Z,100932
2018-04-26T15:36:31.400Z,100943
2018-04-26T15:39:41.667Z,100935
2018-04-26T15:42:53.592Z,100922
2018-04-26T15:46:04.911Z,100911
2018-04-26T15:49:16.038Z,100929
2018-04-26T15:52:49.388Z,100930
2018-04-26T15:56:31.600Z,100922
2018-04-26T15:59:59.634Z,100928
2018-04-26T16:03:27.280Z,100932
2018-04-26T16:11:21.913Z,100944
2018-04-26T16:14:49.156Z,100936
2018-04-26T16:18:22.590Z,100936
2018-04-26T16:21:49.972Z,100956
2018-04-26T16:25:18.034Z,100946
2018-04-26T16:28:51.004Z,100946
2018-04-26T16:32:25.484Z,100958
2018-04-26T16:39:19.664Z,100959
2018-04-26T16:42:29.494Z,100963
2018-04-26T16:45:39.363Z,100936
2018-04-26T16:48:50.235Z,100963
2018-04-26T16:51:59.851Z,100962
2018-04-26T16:55:09.775Z,100947
2018-04-26T16:58:19.853Z,100957
2018-04-26T17:01:29.958Z,100956
2018-04-26T17:04:39.596Z,100952
2018-04-26T17:07:48.896Z,100964
2018-04-26T17:10:59.229Z,100969
2018-04-26T17:14:08.656Z,100953
2018-04-26T17:17:18.943Z,100961
2018-04-26T17:20:28.775Z,100967
2018-04-26T17:23:39.844Z,100965
2018-04-26T17:26:49.341Z,100981
2018-04-26T17:29:59.593Z,100991
2018-04-26T17:33:09.818Z,100986
2018-04-26T17:36:19.633Z,100987
2018-04-26T17:39:29.637Z,100978
2018-04-26T17:42:39.264Z,100987
2018-04-26T17:45:49.528Z,100997
2018-04-26T17:48:59.836Z,101001
2018-04-26T17:52:10.026Z,101012
2018-04-26T17:55:20.290Z,101007
2018-04-26T17:58:30.186Z,101013
2018-04-26T18:01:39.615Z,101017
2018-04-26T18:04:49.902Z,101029
2018-04-26T18:08:00.148Z,101034
2018-04-26T18:11:09.968Z,101036
2018-04-26T18:14:20.746Z,101046
2018-04-26T18:17:30.103Z,101050
2018-04-26T18:20:39.515Z,101054
2018-04-26T18:23:49.800Z,101049
2018-04-26T18:27:00.275Z,101053
2018-04-26T18:30:10.136Z,101059
2018-04-26T18:33:21.020Z,101060
2018-04-26T18:36:31.006Z,101071
2018-04-26T18:39:41.267Z,101066
2018-04-26T18:42:50.729Z,101068
2018-04-26T18:46:00.562Z,101070
2018-04-26T18:49:10.053Z,101078
2018-04-26T18:52:21.767Z,101078
2018-04-26T18:55:31.529Z,101077
2018-04-26T18:58:41.809Z,101077
2018-04-26T19:01:51.225Z,101084
2018-04-26T19:05:01.090Z,101091
2018-04-26T19:08:10.981Z,101095
2018-04-26T19:11:22.449Z,101098
2018-04-26T19:14:32.748Z,101107
2018-04-26T19:17:44.395Z,101109
2018-04-26T19:20:54.283Z,101091
2018-04-26T19:24:04.112Z,101108
2018-04-26T19:27:13.626Z,101115
2018-04-26T19:30:23.752Z,101113
2018-04-26T19:33:38.436Z,101110
2018-04-26T19:36:47.748Z,101115
2018-04-26T19:39:58.039Z,101119
2018-04-26T19:43:07.503Z,101124
2018-04-26T19:46:16.900Z,101126
2018-04-26T19:49:26.720Z,101125
2018-04-26T19:52:36.065Z,101125
2018-04-26T19:55:45.833Z,101127
2018-04-26T19:58:56.103Z,101126
2018-04-26T20:02:10.322Z,101123
2018-04-26T20:05:20.606Z,101117
2018-04-26T20:08:29.983Z,101119
2018-04-26T20:11:40.421Z,101120
2018-04-26T20:14:50.243Z,101115
2018-04-26T20:18:00.399Z,101117
2018-04-26T20:21:10.696Z,101117
2018-04-26T20:24:21.316Z,101114
2018-04-26T20:27:31.088Z,101116
2018-04-26T20:30:41.238Z,101118
2018-04-26T20:33:50.789Z,101116
2018-04-26T20:37:00.259Z,101120
2018-04-26T20:40:11.623Z,101117
2018-04-26T20:43:21.737Z,101115
2018-04-26T20:46:31.256Z,101114
2018-04-26T20:49:40.969Z,101119
2018-04-26T20:52:50.308Z,101119
2018-04-26T20:56:00.223Z,101121
2018-04-26T20:59:10.070Z,101117
2018-04-26T21:02:19.392Z,101117
2018-04-26T21:05:29.573Z,101121
2018-04-26T21:08:38.927Z,101120
2018-04-26T21:11:48.788Z,101118
2018-04-26T21:14:58.683Z,101119
2018-04-26T21:18:08.938Z,101115
2018-04-26T21:21:19.190Z,101116
2018-04-26T21:24:29.056Z,101107
2018-04-26T21:27:39.111Z,101116
2018-04-26T21:30:49.314Z,101116
2018-04-26T21:33:59.183Z,101119
2018-04-26T21:37:09.468Z,101122
2018-04-26T21:40:19.711Z,101122
2018-04-26T21:43:29.995Z,101116
2018-04-26T21:46:44.560Z,101118
2018-04-26T21:50:03.418Z,101116
2018-04-26T21:53:22.284Z,101120
2018-04-26T21:56:38.960Z,101121
2018-04-26T21:59:55.983Z,101119
2018-04-26T22:03:08.791Z,101119
2018-04-26T22:06:20.493Z,101114
2018-04-26T22:09:32.196Z,101118
2018-04-26T22:12:41.652Z,101118
2018-04-26T22:15:52.505Z,101119
2018-04-26T22:19:04.739Z,101126
2018-04-26T22:22:15.937Z,101127
2018-04-26T22:25:26.660Z,101129
2018-04-26T22:28:38.400Z,101125
2018-04-26T22:31:47.679Z,101124
2018-04-26T22:34:57.597Z,101125
2018-04-26T22:38:08.456Z,101120
2018-04-26T22:41:21.139Z,101124
2018-04-26T22:44:31.745Z,101120
2018-04-26T22:47:42.424Z,101129
2018-04-26T22:50:51.696Z,101124
2018-04-26T22:54:01.644Z,101124
2018-04-26T22:57:11.885Z,101119
2018-04-26T23:00:22.168Z,101116
2018-04-26T23:03:32.211Z,101116
2018-04-26T23:06:42.018Z,101116
2018-04-26T23:09:51.383Z,101113
2018-04-26T23:13:00.853Z,101114
2018-04-26T23:16:11.116Z,101114
2018-04-26T23:19:21.369Z,101119
2018-04-26T23:22:32.663Z,101119
2018-04-26T23:25:42.907Z,101118
2018-04-26T23:28:52.996Z,101116
2018-04-26T23:32:03.200Z,101113
2018-04-26T23:35:12.673Z,101118
2018-04-26T23:38:22.140Z,101126
2018-04-26T23:41:33.399Z,101126
2018-04-26T23:44:43.508Z,101120
2018-04-26T23:47:52.955Z,101115
2018-04-26T23:51:02.427Z,101120
2018-04-26T23:54:12.622Z,101117
2018-04-26T23:57:22.849Z,101120
